sensor_id;sensor_type;location;lat;lon;timestamp;pressure;altitude;pressure_sealevel;temperature;humidity
40994;BME280;26722;43.212;27.932;2023-02-13T00:01:11;55363.13;;;-146.72;56.60
40994;BME280;26722;43.212;27.932;2023-02-13T00:03:37;55348.34;;;-146.72;56.40
40994;BME280;26722;43.212;27.932;2023-02-13T00:06:02;55348.34;;;-146.72;56.49
40994;BME280;26722;43.212;27.932;2023-02-13T00:08:28;55356.78;;;-146.72;56.64
40994;BME280;26722;43.212;27.932;2023-02-13T00:10:53;55350.44;;;-146.72;56.53
40994;BME280;26722;43.212;27.932;2023-02-13T00:13:18;55348.34;;;-146.72;56.77
40994;BME280;26722;43.212;27.932;2023-02-13T00:15:44;55348.34;;;-146.72;56.63
40994;BME280;26722;43.212;27.932;2023-02-13T00:18:09;55375.78;;;-146.72;56.71
40994;BME280;26722;43.212;27.932;2023-02-13T00:20:35;55323.00;;;-146.72;56.65
40994;BME280;26722;43.212;27.932;2023-02-13T00:23:01;55344.13;;;-146.72;56.54
40994;BME280;26722;43.212;27.932;2023-02-13T00:25:27;55339.91;;;-146.72;56.51
40994;BME280;26722;43.212;27.932;2023-02-13T00:27:53;55365.22;;;-146.72;56.37
40994;BME280;26722;43.212;27.932;2023-02-13T00:30:21;55369.44;;;-146.72;56.43
40994;BME280;26722;43.212;27.932;2023-02-13T00:32:47;55382.13;;;-146.72;56.41
40994;BME280;26722;43.212;27.932;2023-02-13T00:35:12;55350.44;;;-146.72;56.40
40994;BME280;26722;43.212;27.932;2023-02-13T00:37:38;55350.44;;;-146.72;56.25
40994;BME280;26722;43.212;27.932;2023-02-13T00:40:03;55369.44;;;-146.72;56.31
40994;BME280;26722;43.212;27.932;2023-02-13T00:42:29;55337.78;;;-146.72;56.31
40994;BME280;26722;43.212;27.932;2023-02-13T00:44:54;55356.78;;;-146.72;56.41
40994;BME280;26722;43.212;27.932;2023-02-13T00:47:20;55358.91;;;-146.72;56.30
40994;BME280;26722;43.212;27.932;2023-02-13T00:49:46;55361.00;;;-146.72;56.46
40994;BME280;26722;43.212;27.932;2023-02-13T00:52:11;55356.78;;;-146.72;56.61
40994;BME280;26722;43.212;27.932;2023-02-13T00:54:37;55354.66;;;-146.72;56.97
40994;BME280;26722;43.212;27.932;2023-02-13T00:57:02;55344.13;;;-146.72;56.93
40994;BME280;26722;43.212;27.932;2023-02-13T00:59:28;55342.00;;;-146.72;56.87
40994;BME280;26722;43.212;27.932;2023-02-13T01:01:53;55365.22;;;-146.72;57.08
40994;BME280;26722;43.212;27.932;2023-02-13T01:04:19;55354.66;;;-146.72;57.26
40994;BME280;26722;43.212;27.932;2023-02-13T01:06:44;55344.13;;;-146.72;57.63
40994;BME280;26722;43.212;27.932;2023-02-13T01:09:10;55361.00;;;-146.72;57.56
40994;BME280;26722;43.212;27.932;2023-02-13T01:11:35;55352.56;;;-146.72;57.60
40994;BME280;26722;43.212;27.932;2023-02-13T01:14:01;55352.56;;;-146.72;57.59
40994;BME280;26722;43.212;27.932;2023-02-13T01:16:26;55339.91;;;-146.72;57.83
40994;BME280;26722;43.212;27.932;2023-02-13T01:18:52;55344.13;;;-146.72;58.10
40994;BME280;26722;43.212;27.932;2023-02-13T01:21:19;55352.56;;;-146.72;57.96
40994;BME280;26722;43.212;27.932;2023-02-13T01:23:45;55358.91;;;-146.72;58.00
40994;BME280;26722;43.212;27.932;2023-02-13T01:26:20;55352.56;;;-146.72;58.12
40994;BME280;26722;43.212;27.932;2023-02-13T01:28:46;55371.56;;;-146.72;58.07
40994;BME280;26722;43.212;27.932;2023-02-13T01:31:11;55365.22;;;-146.72;58.24
40994;BME280;26722;43.212;27.932;2023-02-13T01:33:37;55358.91;;;-146.72;58.22
40994;BME280;26722;43.212;27.932;2023-02-13T01:36:10;55365.22;;;-146.72;58.07
40994;BME280;26722;43.212;27.932;2023-02-13T01:38:36;55380.00;;;-146.72;58.29
40994;BME280;26722;43.212;27.932;2023-02-13T01:41:02;55337.78;;;-146.72;58.18
40994;BME280;26722;43.212;27.932;2023-02-13T01:44:01;55363.13;;;-146.72;58.10
40994;BME280;26722;43.212;27.932;2023-02-13T01:48:58;55354.66;;;-146.72;59.04
40994;BME280;26722;43.212;27.932;2023-02-13T01:51:29;55369.44;;;-146.72;59.10
40994;BME280;26722;43.212;27.932;2023-02-13T01:54:06;55365.22;;;-146.72;59.16
40994;BME280;26722;43.212;27.932;2023-02-13T01:56:36;55386.34;;;-146.72;59.30
40994;BME280;26722;43.212;27.932;2023-02-13T01:59:07;55363.13;;;-146.72;59.27
40994;BME280;26722;43.212;27.932;2023-02-13T02:01:35;55361.00;;;-146.72;59.56
40994;BME280;26722;43.212;27.932;2023-02-13T02:04:24;55382.13;;;-146.72;59.63
40994;BME280;26722;43.212;27.932;2023-02-13T02:06:58;55390.56;;;-146.72;59.99
40994;BME280;26722;43.212;27.932;2023-02-13T02:09:28;55373.69;;;-146.72;60.11
40994;BME280;26722;43.212;27.932;2023-02-13T02:14:25;55382.13;;;-146.72;59.73
40994;BME280;26722;43.212;27.932;2023-02-13T02:16:51;55373.69;;;-146.72;59.76
40994;BME280;26722;43.212;27.932;2023-02-13T02:25:21;55375.78;;;-146.72;59.16
40994;BME280;26722;43.212;27.932;2023-02-13T02:31:22;55354.66;;;-146.72;59.24
40994;BME280;26722;43.212;27.932;2023-02-13T02:45:51;55388.47;;;-146.72;59.79
40994;BME280;26722;43.212;27.932;2023-02-13T02:51:25;55361.00;;;-146.72;59.29
40994;BME280;26722;43.212;27.932;2023-02-13T02:56:49;55386.34;;;-146.72;59.21
40994;BME280;26722;43.212;27.932;2023-02-13T02:59:19;55369.44;;;-146.72;59.08
40994;BME280;26722;43.212;27.932;2023-02-13T03:02:06;55352.56;;;-146.72;59.19
40994;BME280;26722;43.212;27.932;2023-02-13T03:04:53;55371.56;;;-146.72;59.18
40994;BME280;26722;43.212;27.932;2023-02-13T03:07:39;55373.69;;;-146.72;59.12
40994;BME280;26722;43.212;27.932;2023-02-13T03:10:24;55399.00;;;-146.72;59.39
40994;BME280;26722;43.212;27.932;2023-02-13T03:13:38;55373.69;;;-146.72;59.18
40994;BME280;26722;43.212;27.932;2023-02-13T03:16:05;55373.69;;;-146.72;58.98
40994;BME280;26722;43.212;27.932;2023-02-13T03:18:52;55411.69;;;-146.72;59.11
40994;BME280;26722;43.212;27.932;2023-02-13T03:22:36;55384.22;;;-146.72;58.96
40994;BME280;26722;43.212;27.932;2023-02-13T03:25:15;55375.78;;;-146.72;59.15
40994;BME280;26722;43.212;27.932;2023-02-13T03:36:28;55367.34;;;-146.72;59.67
40994;BME280;26722;43.212;27.932;2023-02-13T03:41:56;55371.56;;;-146.72;59.44
40994;BME280;26722;43.212;27.932;2023-02-13T03:44:24;55367.34;;;-146.72;59.52
40994;BME280;26722;43.212;27.932;2023-02-13T03:46:56;55377.91;;;-146.72;59.25
40994;BME280;26722;43.212;27.932;2023-02-13T03:49:28;55369.44;;;-146.72;59.42
40994;BME280;26722;43.212;27.932;2023-02-13T03:52:30;55369.44;;;-146.72;59.60
40994;BME280;26722;43.212;27.932;2023-02-13T03:55:03;55382.13;;;-146.72;59.36
40994;BME280;26722;43.212;27.932;2023-02-13T03:57:50;55382.13;;;-146.72;59.34
40994;BME280;26722;43.212;27.932;2023-02-13T04:00:41;55388.47;;;-146.72;59.39
40994;BME280;26722;43.212;27.932;2023-02-13T04:03:13;55399.00;;;-146.72;59.31
40994;BME280;26722;43.212;27.932;2023-02-13T04:05:44;55384.22;;;-146.72;59.50
40994;BME280;26722;43.212;27.932;2023-02-13T04:08:12;55394.78;;;-146.72;59.38
40994;BME280;26722;43.212;27.932;2023-02-13T04:10:49;55377.91;;;-146.72;59.12
40994;BME280;26722;43.212;27.932;2023-02-13T04:13:23;55375.78;;;-146.72;59.12
40994;BME280;26722;43.212;27.932;2023-02-13T04:15:57;55388.47;;;-146.72;59.24
40994;BME280;26722;43.212;27.932;2023-02-13T04:18:28;55420.13;;;-146.72;59.37
40994;BME280;26722;43.212;27.932;2023-02-13T04:20:54;55382.13;;;-146.72;58.98
40994;BME280;26722;43.212;27.932;2023-02-13T04:23:20;55386.34;;;-146.72;58.92
40994;BME280;26722;43.212;27.932;2023-02-13T04:25:49;55377.91;;;-146.72;58.98
40994;BME280;26722;43.212;27.932;2023-02-13T04:28:15;55392.69;;;-146.72;58.81
40994;BME280;26722;43.212;27.932;2023-02-13T04:30:40;55394.78;;;-146.72;58.74
40994;BME280;26722;43.212;27.932;2023-02-13T04:33:06;55361.00;;;-146.72;58.69
40994;BME280;26722;43.212;27.932;2023-02-13T04:35:31;55375.78;;;-146.72;58.65
40994;BME280;26722;43.212;27.932;2023-02-13T04:37:57;55392.69;;;-146.72;58.56
40994;BME280;26722;43.212;27.932;2023-02-13T04:40:23;55377.91;;;-146.72;58.84
40994;BME280;26722;43.212;27.932;2023-02-13T04:42:48;55382.13;;;-146.72;58.89
40994;BME280;26722;43.212;27.932;2023-02-13T04:45:14;55377.91;;;-146.72;58.82
40994;BME280;26722;43.212;27.932;2023-02-13T04:47:40;55373.69;;;-146.72;59.12
40994;BME280;26722;43.212;27.932;2023-02-13T04:50:06;55373.69;;;-146.72;59.09
40994;BME280;26722;43.212;27.932;2023-02-13T04:52:32;55380.00;;;-146.72;59.16
40994;BME280;26722;43.212;27.932;2023-02-13T04:54:57;55384.22;;;-146.72;59.08
40994;BME280;26722;43.212;27.932;2023-02-13T04:57:23;55369.44;;;-146.72;58.79
40994;BME280;26722;43.212;27.932;2023-02-13T04:59:48;55394.78;;;-146.72;58.89
40994;BME280;26722;43.212;27.932;2023-02-13T05:02:13;55377.91;;;-146.72;58.93
40994;BME280;26722;43.212;27.932;2023-02-13T05:04:39;55392.69;;;-146.72;58.76
40994;BME280;26722;43.212;27.932;2023-02-13T05:07:04;55373.69;;;-146.72;58.73
40994;BME280;26722;43.212;27.932;2023-02-13T05:09:30;55373.69;;;-146.72;58.81
40994;BME280;26722;43.212;27.932;2023-02-13T05:11:55;55373.69;;;-146.72;58.81
40994;BME280;26722;43.212;27.932;2023-02-13T05:14:21;55382.13;;;-146.72;58.91
40994;BME280;26722;43.212;27.932;2023-02-13T05:16:47;55399.00;;;-146.72;58.76
40994;BME280;26722;43.212;27.932;2023-02-13T05:19:14;55356.78;;;-146.72;58.81
40994;BME280;26722;43.212;27.932;2023-02-13T05:21:40;55382.13;;;-146.72;58.61
40994;BME280;26722;43.212;27.932;2023-02-13T05:24:24;55388.47;;;-146.72;58.74
40994;BME280;26722;43.212;27.932;2023-02-13T05:26:49;55384.22;;;-146.72;58.82
40994;BME280;26722;43.212;27.932;2023-02-13T05:29:15;55403.25;;;-146.72;58.90
40994;BME280;26722;43.212;27.932;2023-02-13T05:31:47;55407.47;;;-146.72;58.65
40994;BME280;26722;43.212;27.932;2023-02-13T05:34:13;55394.78;;;-146.72;58.63
40994;BME280;26722;43.212;27.932;2023-02-13T05:36:39;55377.91;;;-146.72;59.27
40994;BME280;26722;43.212;27.932;2023-02-13T05:39:05;55373.69;;;-146.72;59.07
40994;BME280;26722;43.212;27.932;2023-02-13T05:41:31;55380.00;;;-146.72;59.25
40994;BME280;26722;43.212;27.932;2023-02-13T05:43:57;55369.44;;;-146.72;59.42
40994;BME280;26722;43.212;27.932;2023-02-13T05:46:22;55377.91;;;-146.72;59.98
40994;BME280;26722;43.212;27.932;2023-02-13T05:48:48;55386.34;;;-146.72;60.14
40994;BME280;26722;43.212;27.932;2023-02-13T05:51:13;55386.34;;;-146.72;59.99
40994;BME280;26722;43.212;27.932;2023-02-13T05:53:39;55373.69;;;-146.72;60.37
40994;BME280;26722;43.212;27.932;2023-02-13T05:56:04;55369.44;;;-146.72;60.19
40994;BME280;26722;43.212;27.932;2023-02-13T05:58:31;55373.69;;;-146.72;59.78
40994;BME280;26722;43.212;27.932;2023-02-13T06:00:58;55392.69;;;-146.72;59.68
40994;BME280;26722;43.212;27.932;2023-02-13T06:03:25;55403.25;;;-146.72;60.00
40994;BME280;26722;43.212;27.932;2023-02-13T06:05:51;55386.34;;;-146.72;59.71
40994;BME280;26722;43.212;27.932;2023-02-13T06:08:17;55356.78;;;-146.72;59.34
40994;BME280;26722;43.212;27.932;2023-02-13T06:10:43;55365.22;;;-146.72;58.71
40994;BME280;26722;43.212;27.932;2023-02-13T06:13:08;55342.00;;;-146.72;57.58
40994;BME280;26722;43.212;27.932;2023-02-13T06:15:34;55352.56;;;-146.72;57.72
40994;BME280;26722;43.212;27.932;2023-02-13T06:17:59;55352.56;;;-146.72;57.91
40994;BME280;26722;43.212;27.932;2023-02-13T06:20:25;55344.13;;;-146.72;57.51
40994;BME280;26722;43.212;27.932;2023-02-13T06:22:51;55344.13;;;-146.72;58.09
40994;BME280;26722;43.212;27.932;2023-02-13T06:25:17;55335.66;;;-146.72;57.59
40994;BME280;26722;43.212;27.932;2023-02-13T06:27:43;55335.66;;;-146.72;56.87
40994;BME280;26722;43.212;27.932;2023-02-13T06:30:09;55342.00;;;-146.72;56.19
40994;BME280;26722;43.212;27.932;2023-02-13T06:32:35;55327.22;;;-146.72;55.65
40994;BME280;26722;43.212;27.932;2023-02-13T06:35:00;55339.91;;;-146.72;55.75
40994;BME280;26722;43.212;27.932;2023-02-13T06:37:25;55335.66;;;-146.72;55.63
40994;BME280;26722;43.212;27.932;2023-02-13T06:39:51;55325.13;;;-146.72;55.76
40994;BME280;26722;43.212;27.932;2023-02-13T06:42:16;55339.91;;;-146.72;55.34
40994;BME280;26722;43.212;27.932;2023-02-13T06:44:43;55331.44;;;-146.72;54.98
40994;BME280;26722;43.212;27.932;2023-02-13T06:47:09;55350.44;;;-146.72;54.52
40994;BME280;26722;43.212;27.932;2023-02-13T06:49:34;55314.56;;;-146.72;54.24
40994;BME280;26722;43.212;27.932;2023-02-13T06:52:00;55325.13;;;-146.72;54.33
40994;BME280;26722;43.212;27.932;2023-02-13T06:54:25;55329.34;;;-146.72;54.19
40994;BME280;26722;43.212;27.932;2023-02-13T06:56:50;55325.13;;;-146.72;54.07
40994;BME280;26722;43.212;27.932;2023-02-13T06:59:16;55314.56;;;-146.72;53.76
40994;BME280;26722;43.212;27.932;2023-02-13T07:01:42;55306.09;;;-146.72;53.58
40994;BME280;26722;43.212;27.932;2023-02-13T07:04:07;55282.88;;;-146.72;54.24
40994;BME280;26722;43.212;27.932;2023-02-13T07:06:33;55291.34;;;-146.72;54.07
40994;BME280;26722;43.212;27.932;2023-02-13T07:09:00;55310.34;;;-146.72;53.07
40994;BME280;26722;43.212;27.932;2023-02-13T07:11:26;55285.00;;;-146.72;51.92
40994;BME280;26722;43.212;27.932;2023-02-13T07:13:51;55280.78;;;-146.72;52.05
40994;BME280;26722;43.212;27.932;2023-02-13T07:16:17;55320.88;;;-146.72;50.92
40994;BME280;26722;43.212;27.932;2023-02-13T07:18:42;55285.00;;;-146.72;50.93
40994;BME280;26722;43.212;27.932;2023-02-13T07:21:08;55282.88;;;-146.72;50.54
40994;BME280;26722;43.212;27.932;2023-02-13T07:23:33;55263.88;;;-146.72;49.99
40994;BME280;26722;43.212;27.932;2023-02-13T07:25:59;55268.09;;;-146.72;49.62
40994;BME280;26722;43.212;27.932;2023-02-13T07:28:25;55276.56;;;-146.72;49.50
40994;BME280;26722;43.212;27.932;2023-02-13T07:30:51;55289.22;;;-146.72;50.06
40994;BME280;26722;43.212;27.932;2023-02-13T07:33:16;55301.88;;;-146.72;49.61
40994;BME280;26722;43.212;27.932;2023-02-13T07:35:46;55276.56;;;-146.72;49.16
40994;BME280;26722;43.212;27.932;2023-02-13T07:38:12;55293.44;;;-146.72;48.52
40994;BME280;26722;43.212;27.932;2023-02-13T07:40:38;55291.34;;;-146.72;48.47
40994;BME280;26722;43.212;27.932;2023-02-13T07:43:03;55268.09;;;-146.72;47.64
40994;BME280;26722;43.212;27.932;2023-02-13T07:45:29;55259.66;;;-146.72;46.62
40994;BME280;26722;43.212;27.932;2023-02-13T07:47:55;55242.78;;;-146.72;46.36
40994;BME280;26722;43.212;27.932;2023-02-13T07:50:21;55251.22;;;-146.72;45.83
40994;BME280;26722;43.212;27.932;2023-02-13T07:52:57;55274.44;;;-146.72;44.87
40994;BME280;26722;43.212;27.932;2023-02-13T07:55:23;55234.31;;;-146.72;44.14
40994;BME280;26722;43.212;27.932;2023-02-13T07:57:48;55259.66;;;-146.72;43.55
40994;BME280;26722;43.212;27.932;2023-02-13T08:00:15;55223.78;;;-146.72;43.97
40994;BME280;26722;43.212;27.932;2023-02-13T08:02:40;55217.44;;;-146.72;45.00
40994;BME280;26722;43.212;27.932;2023-02-13T08:05:06;55236.44;;;-146.72;45.51
40994;BME280;26722;43.212;27.932;2023-02-13T08:07:32;55249.09;;;-146.72;46.51
40994;BME280;26722;43.212;27.932;2023-02-13T08:09:58;55251.22;;;-146.72;47.01
40994;BME280;26722;43.212;27.932;2023-02-13T08:12:41;55251.22;;;-146.72;47.10
40994;BME280;26722;43.212;27.932;2023-02-13T08:15:16;55234.31;;;-146.72;46.82
40994;BME280;26722;43.212;27.932;2023-02-13T08:17:41;55240.66;;;-146.72;46.91
40994;BME280;26722;43.212;27.932;2023-02-13T08:20:07;55270.22;;;-146.72;47.55
40994;BME280;26722;43.212;27.932;2023-02-13T08:22:34;55266.00;;;-146.72;47.85
40994;BME280;26722;43.212;27.932;2023-02-13T08:25:00;55259.66;;;-146.72;47.79
40994;BME280;26722;43.212;27.932;2023-02-13T08:27:25;55270.22;;;-146.72;47.06
40994;BME280;26722;43.212;27.932;2023-02-13T08:29:52;55259.66;;;-146.72;47.17
40994;BME280;26722;43.212;27.932;2023-02-13T08:32:17;55230.09;;;-146.72;47.25
40994;BME280;26722;43.212;27.932;2023-02-13T08:34:43;55263.88;;;-146.72;46.94
40994;BME280;26722;43.212;27.932;2023-02-13T08:37:08;55270.22;;;-146.72;46.68
40994;BME280;26722;43.212;27.932;2023-02-13T08:39:33;55251.22;;;-146.72;46.23
40994;BME280;26722;43.212;27.932;2023-02-13T08:41:59;55238.53;;;-146.72;45.68
40994;BME280;26722;43.212;27.932;2023-02-13T08:44:25;55230.09;;;-146.72;47.00
40994;BME280;26722;43.212;27.932;2023-02-13T08:46:50;55272.31;;;-146.72;45.70
40994;BME280;26722;43.212;27.932;2023-02-13T08:49:16;55242.78;;;-146.72;45.06
40994;BME280;26722;43.212;27.932;2023-02-13T08:51:41;55230.09;;;-146.72;44.59
40994;BME280;26722;43.212;27.932;2023-02-13T08:54:07;55255.44;;;-146.72;45.31
40994;BME280;26722;43.212;27.932;2023-02-13T08:56:32;55238.53;;;-146.72;45.38
40994;BME280;26722;43.212;27.932;2023-02-13T08:58:57;55272.31;;;-146.72;44.80
40994;BME280;26722;43.212;27.932;2023-02-13T09:01:23;55251.22;;;-146.72;45.09
40994;BME280;26722;43.212;27.932;2023-02-13T09:03:48;55238.53;;;-146.72;45.21
40994;BME280;26722;43.212;27.932;2023-02-13T09:06:14;55272.31;;;-146.72;45.08
40994;BME280;26722;43.212;27.932;2023-02-13T09:08:39;55255.44;;;-146.72;44.85
40994;BME280;26722;43.212;27.932;2023-02-13T09:11:08;55249.09;;;-146.72;45.25
40994;BME280;26722;43.212;27.932;2023-02-13T09:13:34;55219.53;;;-146.72;44.98
40994;BME280;26722;43.212;27.932;2023-02-13T09:16:05;55236.44;;;-146.72;43.61
40994;BME280;26722;43.212;27.932;2023-02-13T09:18:31;55238.53;;;-146.72;44.02
40994;BME280;26722;43.212;27.932;2023-02-13T09:21:06;55242.78;;;-146.72;45.31
40994;BME280;26722;43.212;27.932;2023-02-13T09:23:34;55238.53;;;-146.72;45.71
40994;BME280;26722;43.212;27.932;2023-02-13T09:26:01;55234.31;;;-146.72;45.46
40994;BME280;26722;43.212;27.932;2023-02-13T09:28:28;55255.44;;;-146.72;45.13
40994;BME280;26722;43.212;27.932;2023-02-13T09:30:54;55221.66;;;-146.72;45.27
40994;BME280;26722;43.212;27.932;2023-02-13T09:33:20;55259.66;;;-146.72;44.71
40994;BME280;26722;43.212;27.932;2023-02-13T09:35:45;55204.75;;;-146.72;43.80
40994;BME280;26722;43.212;27.932;2023-02-13T09:38:10;55234.31;;;-146.72;43.66
40994;BME280;26722;43.212;27.932;2023-02-13T09:43:34;55198.44;;;-146.72;43.43
40994;BME280;26722;43.212;27.932;2023-02-13T09:46:08;55221.66;;;-146.72;41.64
40994;BME280;26722;43.212;27.932;2023-02-13T09:48:38;55238.53;;;-146.72;41.26
40994;BME280;26722;43.212;27.932;2023-02-13T09:51:05;55219.53;;;-146.72;41.91
40994;BME280;26722;43.212;27.932;2023-02-13T09:53:30;55228.00;;;-146.72;41.67
40994;BME280;26722;43.212;27.932;2023-02-13T09:56:15;55223.78;;;-146.72;40.86
40994;BME280;26722;43.212;27.932;2023-02-13T09:58:47;55213.22;;;-146.72;40.04
40994;BME280;26722;43.212;27.932;2023-02-13T10:01:36;55213.22;;;-146.72;39.84
40994;BME280;26722;43.212;27.932;2023-02-13T10:07:18;55219.53;;;-146.72;39.59
40994;BME280;26722;43.212;27.932;2023-02-13T10:10:01;55198.44;;;-146.72;39.27
40994;BME280;26722;43.212;27.932;2023-02-13T10:13:00;55198.44;;;-146.72;39.59
40994;BME280;26722;43.212;27.932;2023-02-13T10:15:52;55230.09;;;-146.72;39.78
40994;BME280;26722;43.212;27.932;2023-02-13T10:18:25;55223.78;;;-146.72;39.49
40994;BME280;26722;43.212;27.932;2023-02-13T10:20:58;55215.31;;;-146.72;39.06
40994;BME280;26722;43.212;27.932;2023-02-13T10:23:44;55232.22;;;-146.72;39.54
40994;BME280;26722;43.212;27.932;2023-02-13T10:26:17;55196.31;;;-146.72;39.98
40994;BME280;26722;43.212;27.932;2023-02-13T10:28:56;55204.75;;;-146.72;39.48
40994;BME280;26722;43.212;27.932;2023-02-13T10:31:44;55232.22;;;-146.72;40.25
40994;BME280;26722;43.212;27.932;2023-02-13T10:34:16;55192.09;;;-146.72;39.25
40994;BME280;26722;43.212;27.932;2023-02-13T10:36:46;55209.00;;;-146.72;39.54
40994;BME280;26722;43.212;27.932;2023-02-13T10:39:25;55223.78;;;-146.72;39.28
40994;BME280;26722;43.212;27.932;2023-02-13T10:42:19;55223.78;;;-146.72;39.75
40994;BME280;26722;43.212;27.932;2023-02-13T10:48:05;55198.44;;;-146.72;39.42
40994;BME280;26722;43.212;27.932;2023-02-13T10:50:55;55217.44;;;-146.72;39.35
40994;BME280;26722;43.212;27.932;2023-02-13T11:01:05;55200.53;;;-146.72;37.91
40994;BME280;26722;43.212;27.932;2023-02-13T11:03:32;55192.09;;;-146.72;37.81
40994;BME280;26722;43.212;27.932;2023-02-13T11:05:59;55181.53;;;-146.72;37.73
40994;BME280;26722;43.212;27.932;2023-02-13T11:08:39;55190.00;;;-146.72;37.57
40994;BME280;26722;43.212;27.932;2023-02-13T11:16:58;55204.75;;;-146.72;37.29
40994;BME280;26722;43.212;27.932;2023-02-13T11:19:38;55183.66;;;-146.72;37.26
40994;BME280;26722;43.212;27.932;2023-02-13T11:22:11;55200.53;;;-146.72;37.08
40994;BME280;26722;43.212;27.932;2023-02-13T11:24:39;55175.22;;;-146.72;37.21
40994;BME280;26722;43.212;27.932;2023-02-13T11:27:08;55185.75;;;-146.72;36.82
40994;BME280;26722;43.212;27.932;2023-02-13T11:29:55;55183.66;;;-146.72;37.19
40994;BME280;26722;43.212;27.932;2023-02-13T11:32:39;55185.75;;;-146.72;36.92
40994;BME280;26722;43.212;27.932;2023-02-13T11:35:37;55175.22;;;-146.72;36.62
40994;BME280;26722;43.212;27.932;2023-02-13T11:40:41;55170.97;;;-146.72;39.28
40994;BME280;26722;43.212;27.932;2023-02-13T11:43:25;55177.31;;;-146.72;40.69
40994;BME280;26722;43.212;27.932;2023-02-13T11:46:07;55179.44;;;-146.72;41.49
40994;BME280;26722;43.212;27.932;2023-02-13T11:48:37;55164.66;;;-146.72;41.60
40994;BME280;26722;43.212;27.932;2023-02-13T11:51:03;55179.44;;;-146.72;41.88
40994;BME280;26722;43.212;27.932;2023-02-13T11:53:31;55183.66;;;-146.72;41.59
40994;BME280;26722;43.212;27.932;2023-02-13T11:58:34;55175.22;;;-146.72;42.08
40994;BME280;26722;43.212;27.932;2023-02-13T12:06:57;55213.22;;;-146.72;44.44
40994;BME280;26722;43.212;27.932;2023-02-13T12:09:23;55225.88;;;-146.72;44.26
40994;BME280;26722;43.212;27.932;2023-02-13T12:11:51;55204.75;;;-146.72;44.45
40994;BME280;26722;43.212;27.932;2023-02-13T12:14:24;55213.22;;;-146.72;43.92
40994;BME280;26722;43.212;27.932;2023-02-13T12:17:05;55213.22;;;-146.72;44.23
40994;BME280;26722;43.212;27.932;2023-02-13T12:19:40;55209.00;;;-146.72;44.20
40994;BME280;26722;43.212;27.932;2023-02-13T12:22:35;55202.66;;;-146.72;44.17
40994;BME280;26722;43.212;27.932;2023-02-13T12:25:21;55209.00;;;-146.72;44.24
40994;BME280;26722;43.212;27.932;2023-02-13T12:30:37;55217.44;;;-146.72;44.16
40994;BME280;26722;43.212;27.932;2023-02-13T12:36:18;55223.78;;;-146.72;43.94
40994;BME280;26722;43.212;27.932;2023-02-13T12:41:23;55217.44;;;-146.72;43.19
40994;BME280;26722;43.212;27.932;2023-02-13T13:06:12;55215.31;;;-146.72;41.72
40994;BME280;26722;43.212;27.932;2023-02-13T13:22:45;55221.66;;;-146.72;38.86
40994;BME280;26722;43.212;27.932;2023-02-13T13:27:52;55200.53;;;-146.72;40.69
40994;BME280;26722;43.212;27.932;2023-02-13T13:30:21;55213.22;;;-146.72;40.24
40994;BME280;26722;43.212;27.932;2023-02-13T13:33:20;55200.53;;;-146.72;40.31
40994;BME280;26722;43.212;27.932;2023-02-13T13:38:33;55209.00;;;-146.72;38.71
40994;BME280;26722;43.212;27.932;2023-02-13T13:41:39;55209.00;;;-146.72;38.20
40994;BME280;26722;43.212;27.932;2023-02-13T13:46:57;55196.31;;;-146.72;37.92
40994;BME280;26722;43.212;27.932;2023-02-13T13:54:52;55215.31;;;-146.72;37.39
40994;BME280;26722;43.212;27.932;2023-02-13T13:58:04;55213.22;;;-146.72;37.94
40994;BME280;26722;43.212;27.932;2023-02-13T14:02:50;55215.31;;;-146.72;38.86
40994;BME280;26722;43.212;27.932;2023-02-13T14:05:27;55232.22;;;-146.72;39.54
40994;BME280;26722;43.212;27.932;2023-02-13T14:07:59;55206.88;;;-146.72;40.90
40994;BME280;26722;43.212;27.932;2023-02-13T14:20:40;55242.78;;;-146.72;40.98
40994;BME280;26722;43.212;27.932;2023-02-13T14:23:25;55217.44;;;-146.72;40.92
40994;BME280;26722;43.212;27.932;2023-02-13T14:28:41;55230.09;;;-146.72;42.50
40994;BME280;26722;43.212;27.932;2023-02-13T14:33:54;55209.00;;;-146.72;41.36
40994;BME280;26722;43.212;27.932;2023-02-13T14:36:22;55225.88;;;-146.72;42.31
40994;BME280;26722;43.212;27.932;2023-02-13T14:39:02;55209.00;;;-146.72;42.07
40994;BME280;26722;43.212;27.932;2023-02-13T14:41:44;55196.31;;;-146.72;41.72
40994;BME280;26722;43.212;27.932;2023-02-13T14:44:45;55211.09;;;-146.72;41.64
40994;BME280;26722;43.212;27.932;2023-02-13T14:47:28;55221.66;;;-146.72;42.76
40994;BME280;26722;43.212;27.932;2023-02-13T14:49:55;55202.66;;;-146.72;42.87
40994;BME280;26722;43.212;27.932;2023-02-13T14:52:24;55230.09;;;-146.72;42.74
40994;BME280;26722;43.212;27.932;2023-02-13T14:54:59;55213.22;;;-146.72;42.49
40994;BME280;26722;43.212;27.932;2023-02-13T15:03:23;55240.66;;;-146.72;43.59
40994;BME280;26722;43.212;27.932;2023-02-13T15:05:55;55211.09;;;-146.72;43.22
40994;BME280;26722;43.212;27.932;2023-02-13T15:08:25;55240.66;;;-146.72;43.71
40994;BME280;26722;43.212;27.932;2023-02-13T15:10:54;55234.31;;;-146.72;43.85
40994;BME280;26722;43.212;27.932;2023-02-13T15:13:22;55238.53;;;-146.72;42.79
40994;BME280;26722;43.212;27.932;2023-02-13T15:15:57;55228.00;;;-146.72;42.37
40994;BME280;26722;43.212;27.932;2023-02-13T15:18:27;55223.78;;;-146.72;42.66
40994;BME280;26722;43.212;27.932;2023-02-13T15:20:54;55259.66;;;-146.72;43.07
40994;BME280;26722;43.212;27.932;2023-02-13T15:23:25;55251.22;;;-146.72;43.55
40994;BME280;26722;43.212;27.932;2023-02-13T15:25:56;55249.09;;;-146.72;44.16
40994;BME280;26722;43.212;27.932;2023-02-13T15:28:23;55225.88;;;-146.72;45.02